Time;durP1;ratioP1;P1;durP2;ratioP2;P2;SDS_P1;SDS_P2;PMS_P1;PMS_P2;Temp;Humidity;BMP_temperature;BMP_pressure;BME280_temperature;BME280_humidity;BME280_pressure;Samples;Min_cycle;Max_cycle;Signal;HPM_P1;HPM_P2
2022/01/19 10:18:13;;;;;;;19.83;18.33;;;8.90;99.90;;;;;;5106883;28;20421;-76
2022/01/19 10:20:40;;;;;;;21.87;19.97;;;8.50;99.90;;;;;;5106876;28;20489;-76
2022/01/19 10:23:28;;;;;;;18.97;17.43;;;8.40;99.90;;;;;;5107010;28;20876;-76
2022/01/19 10:25:55;;;;;;;22.60;20.47;;;8.90;99.90;;;;;;5107032;28;20528;-75
2022/01/19 10:28:23;;;;;;;19.93;18.43;;;8.50;99.90;;;;;;5107221;28;20491;-74
2022/01/19 10:30:50;;;;;;;19.47;17.97;;;8.30;99.90;;;;;;5107205;28;20865;-76
2022/01/19 10:33:18;;;;;;;20.77;19.10;;;8.30;99.90;;;;;;5107315;28;20502;-76
2022/01/19 10:35:48;;;;;;;18.90;17.10;;;8.80;99.90;;;;;;5107343;28;20445;-76
2022/01/19 10:38:18;;;;;;;19.60;18.10;;;9.20;99.90;;;;;;5107182;28;20474;-76
2022/01/19 10:41:02;;;;;;;19.30;17.80;;;9.50;99.90;;;;;;5106899;28;20480;-76
2022/01/19 10:43:32;;;;;;;19.20;17.57;;;9.90;99.40;;;;;;5107136;28;20778;-73
2022/01/19 10:46:02;;;;;;;20.77;19.27;;;9.90;99.20;;;;;;5106931;28;20446;-76
2022/01/19 10:48:37;;;;;;;19.23;17.53;;;9.80;99.00;;;;;;5106858;28;20448;-76
2022/01/19 10:51:12;;;;;;;21.00;19.23;;;10.30;98.20;;;;;;5106960;28;20442;-75
2022/01/19 10:53:41;;;;;;;19.70;18.20;;;9.90;98.20;;;;;;5106618;28;20457;-76
2022/01/19 10:56:22;;;;;;;18.67;17.30;;;9.90;99.00;;;;;;5106503;28;20495;-75
2022/01/19 10:58:56;;;;;;;18.70;17.37;;;10.50;96.90;;;;;;5106698;28;20453;-76
2022/01/19 11:01:34;;;;;;;18.80;17.30;;;10.70;96.80;;;;;;5106381;28;20481;-75
2022/01/19 11:04:26;;;;;;;19.47;18.20;;;10.90;96.00;;;;;;5106424;28;21001;-76
2022/01/19 11:06:56;;;;;;;19.13;17.80;;;11.00;95.60;;;;;;5106671;28;20441;-76
2022/01/19 11:09:25;;;;;;;20.13;18.43;;;10.80;95.90;;;;;;5106363;28;20804;-76
2022/01/19 11:11:53;;;;;;;18.07;16.17;;;10.80;95.70;;;;;;5102094;28;20474;-75
2022/01/19 11:14:23;;;;;;;17.00;15.60;;;10.50;95.70;;;;;;5092645;28;20453;-75
2022/01/19 11:16:51;;;;;;;20.33;18.53;;;10.60;96.10;;;;;;5092757;28;20542;-76
2022/01/19 11:19:18;;;;;;;19.37;17.67;;;10.80;95.90;;;;;;5092742;28;20446;-75
2022/01/19 11:21:55;;;;;;;20.17;18.47;;;10.80;95.50;;;;;;5092294;28;20492;-76
2022/01/19 11:24:34;;;;;;;19.03;17.60;;;11.20;95.30;;;;;;5092160;28;20917;-76
2022/01/19 11:27:01;;;;;;;18.87;17.50;;;12.30;93.90;;;;;;5092491;28;20446;-75
2022/01/19 11:29:30;;;;;;;17.87;16.57;;;12.30;92.90;;;;;;5092209;28;20969;-74
2022/01/19 11:31:58;;;;;;;18.13;17.00;;;13.00;91.20;;;;;;5092425;28;20489;-73
2022/01/19 11:34:39;;;;;;;18.57;17.30;;;12.90;92.00;;;;;;5092290;28;20446;-76
2022/01/19 11:37:06;;;;;;;20.30;18.40;;;13.00;90.50;;;;;;5092290;28;20458;-76
2022/01/19 11:39:33;;;;;;;19.83;17.80;;;12.70;90.90;;;;;;5092431;28;20454;-76
2022/01/19 11:42:03;;;;;;;18.87;17.37;;;12.30;92.00;;;;;;5092255;28;20443;-76
2022/01/19 11:44:41;;;;;;;19.90;18.40;;;12.80;91.40;;;;;;5092298;28;20438;-76
2022/01/19 11:47:21;;;;;;;19.73;18.33;;;12.70;91.40;;;;;;5092141;28;20457;-76
2022/01/19 11:49:51;;;;;;;18.00;16.50;;;13.00;90.50;;;;;;5092410;28;20511;-78
2022/01/19 11:52:20;;;;;;;19.20;17.90;;;14.80;88.10;;;;;;5092393;28;20892;-77
2022/01/19 11:54:49;;;;;;;19.07;17.93;;;16.50;81.30;;;;;;5092054;28;20454;-77
2022/01/19 11:57:17;;;;;;;19.87;18.23;;;16.80;77.20;;;;;;5092039;28;20450;-78
2022/01/19 12:00:20;;;;;;;18.57;17.20;;;17.40;76.40;;;;;;5091886;28;20507;-77
2022/01/19 12:02:49;;;;;;;18.43;17.13;;;18.80;70.20;;;;;;5029506;28;20846;-77
2022/01/19 12:05:22;;;;;;;20.50;19.30;;;18.60;66.40;;;;;;5080664;28;20442;-77
2022/01/19 12:07:53;;;;;;;20.40;18.90;;;17.70;67.00;;;;;;5091889;28;20449;-76
2022/01/19 12:10:22;;;;;;;20.87;19.43;;;15.20;72.70;;;;;;5091666;28;20445;-76
2022/01/19 12:13:25;;;;;;;20.83;18.97;;;15.00;75.50;;;;;;5091900;28;20450;-76
2022/01/19 12:15:58;;;;;;;22.03;20.27;;;14.90;76.80;;;;;;5091353;28;20495;-77
2022/01/19 12:18:47;;;;;;;20.87;19.17;;;15.20;75.20;;;;;;5091580;28;20777;-76
2022/01/19 12:21:15;;;;;;;19.43;18.10;;;14.70;76.90;;;;;;5091471;28;20488;-75
2022/01/19 12:23:44;;;;;;;18.60;17.50;;;14.60;77.10;;;;;;5090484;28;21387;-75
2022/01/19 12:26:11;;;;;;;19.83;18.43;;;13.90;77.20;;;;;;5091306;28;21145;-76
2022/01/19 12:28:39;;;;;;;21.90;19.73;;;12.70;81.10;;;;;;5091178;28;20442;-76
2022/01/19 12:31:36;;;;;;;18.43;16.93;;;11.90;85.10;;;;;;5091296;28;20885;-75
2022/01/19 12:34:20;;;;;;;20.30;18.67;;;11.20;88.50;;;;;;5091378;28;20456;-75
2022/01/19 12:36:53;;;;;;;20.83;18.83;;;11.00;91.00;;;;;;5091484;28;20490;-75
2022/01/19 12:39:42;;;;;;;19.63;18.13;;;11.10;91.00;;;;;;5091005;28;20851;-76
2022/01/19 12:42:14;;;;;;;18.53;17.00;;;11.20;91.10;;;;;;5090905;28;20434;-74
2022/01/19 12:44:47;;;;;;;18.50;17.40;;;11.30;91.90;;;;;;5090896;28;20782;-77
2022/01/19 12:47:47;;;;;;;19.40;17.93;;;11.20;91.10;;;;;;5091126;28;20453;-76
2022/01/19 12:50:41;;;;;;;18.30;16.80;;;11.00;91.80;;;;;;5091050;28;20459;-74
2022/01/19 12:53:15;;;;;;;18.27;16.97;;;10.70;92.10;;;;;;5091011;28;20450;-76
2022/01/19 12:55:46;;;;;;;18.37;16.97;;;10.60;92.50;;;;;;5090812;28;20448;-75
2022/01/19 12:58:17;;;;;;;18.17;16.70;;;10.50;92.70;;;;;;5090736;28;20457;-74
2022/01/19 13:00:49;;;;;;;18.93;17.43;;;10.00;93.50;;;;;;5090592;28;20457;-76
2022/01/19 13:03:20;;;;;;;16.73;15.43;;;9.70;95.10;;;;;;5090638;28;20550;-75
2022/01/19 13:05:50;;;;;;;19.13;17.27;;;9.30;96.00;;;;;;5091011;28;20882;-76
2022/01/19 13:08:29;;;;;;;19.40;17.90;;;8.80;97.90;;;;;;5090791;28;20454;-76
2022/01/19 13:11:04;;;;;;;18.13;16.43;;;8.70;98.10;;;;;;5090034;28;20482;-74
2022/01/19 13:13:31;;;;;;;18.10;16.67;;;9.00;98.10;;;;;;5090617;28;20451;-76
2022/01/19 13:15:59;;;;;;;16.77;15.67;;;9.10;97.80;;;;;;5090232;28;20454;-76
2022/01/19 13:18:34;;;;;;;18.87;17.30;;;9.10;97.70;;;;;;5090166;28;20500;-74
2022/01/19 13:21:03;;;;;;;18.30;16.90;;;9.30;97.40;;;;;;5090622;28;20446;-75
2022/01/19 13:23:33;;;;;;;17.07;15.80;;;9.50;97.30;;;;;;5090413;28;20537;-76
2022/01/19 13:26:03;;;;;;;17.87;16.13;;;9.30;97.70;;;;;;5090413;28;20694;-75
2022/01/19 13:28:31;;;;;;;18.30;16.80;;;9.40;97.60;;;;;;5090622;28;20438;-76
2022/01/19 13:31:09;;;;;;;20.53;15.80;;;9.30;97.70;;;;;;5089971;28;20450;-76
2022/01/19 13:33:37;;;;;;;16.83;14.77;;;9.20;97.90;;;;;;5089937;28;20468;-76
2022/01/19 13:36:05;;;;;;;18.53;17.13;;;9.10;98.20;;;;;;5090028;28;20449;-76
2022/01/19 13:38:32;;;;;;;16.60;15.20;;;9.00;98.50;;;;;;5090445;28;20553;-75
2022/01/19 13:41:06;;;;;;;17.60;16.03;;;8.90;99.10;;;;;;5089853;28;20481;-75
2022/01/19 13:43:39;;;;;;;16.63;15.03;;;8.90;99.00;;;;;;5090261;28;20457;-75
2022/01/19 13:46:15;;;;;;;17.27;15.83;;;8.90;98.80;;;;;;5090189;28;20442;-75
2022/01/19 13:48:46;;;;;;;15.97;14.87;;;9.00;99.20;;;;;;5089884;28;20449;-75
2022/01/19 13:51:15;;;;;;;18.90;16.23;;;9.00;99.10;;;;;;5089750;28;20478;-75
2022/01/19 13:53:46;;;;;;;17.93;16.40;;;9.00;98.90;;;;;;5089954;28;20457;-75
2022/01/19 13:56:17;;;;;;;16.73;15.37;;;8.80;98.90;;;;;;5089684;28;20553;-75
2022/01/19 13:58:46;;;;;;;15.83;14.57;;;8.60;99.60;;;;;;5089931;28;20446;-75
2022/01/19 14:01:19;;;;;;;16.77;15.43;;;8.50;99.90;;;;;;5089485;28;20448;-74
2022/01/19 14:03:50;;;;;;;16.93;15.53;;;8.40;99.90;;;;;;5089753;28;20804;-75
2022/01/19 14:06:21;;;;;;;17.47;16.23;;;8.50;99.90;;;;;;5090004;28;20494;-75
2022/01/19 14:08:48;;;;;;;16.70;15.50;;;8.70;99.90;;;;;;5089966;28;20450;-74
2022/01/19 14:11:23;;;;;;;17.70;16.17;;;8.80;99.90;;;;;;5089573;28;21019;-75
2022/01/19 14:13:58;;;;;;;17.50;15.70;;;8.90;99.90;;;;;;5089928;28;20510;-75
2022/01/19 14:16:27;;;;;;;16.90;15.70;;;9.00;99.40;;;;;;5089728;28;20481;-76
2022/01/19 14:19:24;;;;;;;15.53;14.27;;;9.10;98.90;;;;;;5089526;28;20457;-75
2022/01/19 14:22:03;;;;;;;15.70;14.30;;;8.90;99.20;;;;;;5054178;28;20453;-75
2022/01/19 14:24:45;;;;;;;15.70;14.40;;;9.00;99.20;;;;;;5089723;28;20446;-76
2022/01/19 14:27:13;;;;;;;14.60;13.50;;;9.00;98.70;;;;;;5089540;28;20446;-76
2022/01/19 14:29:55;;;;;;;14.93;13.80;;;8.40;99.30;;;;;;5089472;28;20461;-76
2022/01/19 14:32:33;;;;;;;15.63;14.60;;;8.20;99.90;;;;;;5089293;28;20577;-76
2022/01/19 14:35:01;;;;;;;15.90;14.70;;;8.40;99.90;;;;;;5089790;28;20449;-76
2022/01/19 14:37:28;;;;;;;15.83;14.73;;;8.30;99.90;;;;;;5089437;28;20965;-75
2022/01/19 14:39:58;;;;;;;15.10;13.90;;;8.20;99.90;;;;;;5089529;28;20503;-76
2022/01/19 14:42:28;;;;;;;14.37;13.57;;;8.20;99.50;;;;;;5089514;28;20924;-75
2022/01/19 14:45:01;;;;;;;14.80;13.40;;;8.20;99.20;;;;;;5089434;28;20457;-75
2022/01/19 14:47:36;;;;;;;14.90;13.73;;;8.10;98.70;;;;;;5090572;28;20465;-76
2022/01/19 14:50:18;;;;;;;13.93;12.93;;;8.00;98.80;;;;;;5093539;28;20446;-75
2022/01/19 14:52:44;;;;;;;13.13;12.33;;;7.90;98.70;;;;;;5093341;28;20485;-75
2022/01/19 14:55:11;;;;;;;15.13;14.17;;;7.80;98.90;;;;;;5093080;28;20846;-75
2022/01/19 14:57:38;;;;;;;14.77;13.77;;;7.80;98.80;;;;;;5093138;28;20503;-75
2022/01/19 15:00:06;;;;;;;14.30;13.40;;;7.90;98.90;;;;;;5093214;28;20938;-75
2022/01/19 15:02:33;;;;;;;13.67;12.77;;;7.80;99.10;;;;;;5093227;28;20471;-75
2022/01/19 15:05:00;;;;;;;14.50;13.30;;;7.70;99.00;;;;;;5093158;28;20449;-76
2022/01/19 15:07:28;;;;;;;13.77;12.63;;;7.60;99.40;;;;;;5092861;28;20449;-76
2022/01/19 15:09:54;;;;;;;11.93;11.13;;;7.50;99.80;;;;;;5092703;28;20453;-76
2022/01/19 15:12:21;;;;;;;12.70;11.80;;;7.50;99.90;;;;;;5092498;28;20500;-75
2022/01/19 15:14:48;;;;;;;13.00;12.17;;;7.40;99.90;;;;;;5092993;28;20938;-76
2022/01/19 15:17:15;;;;;;;14.90;13.80;;;7.40;99.90;;;;;;5092797;28;20476;-75
2022/01/19 15:19:41;;;;;;;15.23;13.93;;;7.40;99.90;;;;;;5092472;28;20449;-75
2022/01/19 15:22:08;;;;;;;14.60;13.60;;;7.50;99.90;;;;;;5092567;28;20446;-75
2022/01/19 15:24:36;;;;;;;15.13;13.80;;;7.40;99.90;;;;;;5092789;28;20457;-76
2022/01/19 15:27:03;;;;;;;14.17;13.27;;;7.30;99.90;;;;;;5092771;28;20502;-75
2022/01/19 15:29:30;;;;;;;15.50;14.20;;;7.10;99.90;;;;;;5092595;28;20514;-75
2022/01/19 15:31:56;;;;;;;14.37;13.27;;;7.10;99.90;;;;;;5092487;28;20542;-75
2022/01/19 15:34:23;;;;;;;14.40;13.50;;;7.10;99.90;;;;;;5092186;28;20453;-75
2022/01/19 15:36:50;;;;;;;14.93;13.80;;;7.10;99.90;;;;;;5092403;28;20456;-74
2022/01/19 15:39:17;;;;;;;15.23;14.13;;;7.00;99.90;;;;;;5092546;28;20451;-75
2022/01/19 15:41:45;;;;;;;15.87;14.53;;;7.10;99.90;;;;;;5092157;28;20503;-75
2022/01/19 15:44:12;;;;;;;14.97;13.87;;;7.00;99.90;;;;;;5092135;28;20506;-76
2022/01/19 15:46:38;;;;;;;15.43;13.93;;;7.00;99.90;;;;;;5092263;28;20840;-76
2022/01/19 15:49:07;;;;;;;16.67;15.20;;;7.00;99.90;;;;;;5092267;28;20456;-76
2022/01/19 15:51:34;;;;;;;14.40;13.43;;;6.90;99.90;;;;;;5092261;28;20511;-76
2022/01/19 15:54:01;;;;;;;15.70;14.60;;;6.80;99.90;;;;;;5092223;28;20452;-76
2022/01/19 15:56:27;;;;;;;14.90;13.80;;;6.80;99.90;;;;;;5091680;28;20510;-76
2022/01/19 15:58:55;;;;;;;16.60;15.30;;;6.70;99.90;;;;;;5091527;28;20712;-76
2022/01/19 16:01:22;;;;;;;15.63;14.27;;;6.70;99.90;;;;;;5091580;28;20544;-76
2022/01/19 16:03:49;;;;;;;16.07;14.70;;;6.60;99.90;;;;;;5091527;28;20974;-76
2022/01/19 16:06:16;;;;;;;15.13;14.07;;;6.50;99.90;;;;;;5091968;28;20530;-75
2022/01/19 16:08:42;;;;;;;17.33;16.00;;;6.50;99.90;;;;;;5091239;28;20450;-75
2022/01/19 16:11:09;;;;;;;16.50;14.90;;;6.40;99.90;;;;;;5090964;28;20472;-75
2022/01/19 16:13:36;;;;;;;16.43;14.80;;;6.30;99.90;;;;;;5091531;28;20986;-75
2022/01/19 16:16:04;;;;;;;16.10;14.50;;;6.40;99.90;;;;;;5091800;28;20461;-76
2022/01/19 16:18:31;;;;;;;16.67;15.33;;;6.30;99.90;;;;;;5091646;28;20454;-75
2022/01/19 16:20:59;;;;;;;16.67;15.07;;;6.30;99.90;;;;;;5091452;28;20449;-74
2022/01/19 16:26:14;;;;;;;14.97;14.00;;;6.40;99.90;;;;;;5091426;28;20428;-75
2022/01/19 16:28:43;;;;;;;15.87;14.33;;;6.30;99.90;;;;;;5091307;28;20448;-75
2022/01/19 16:31:14;;;;;;;15.30;13.80;;;6.30;99.90;;;;;;5091243;28;20449;-75
2022/01/19 16:33:41;;;;;;;15.30;13.80;;;6.30;99.90;;;;;;5091301;28;20589;-75
2022/01/19 16:36:10;;;;;;;16.33;15.00;;;6.20;99.90;;;;;;5091040;28;20700;-74
2022/01/19 16:38:37;;;;;;;18.20;16.40;;;6.30;99.90;;;;;;5091032;28;20503;-75
2022/01/19 16:41:04;;;;;;;15.80;14.50;;;6.30;99.90;;;;;;5091462;28;20836;-75
2022/01/19 16:43:31;;;;;;;15.50;14.10;;;6.20;99.90;;;;;;5091244;28;20447;-75
2022/01/19 16:45:59;;;;;;;14.83;13.80;;;6.20;99.90;;;;;;5090894;28;20447;-76
2022/01/19 16:48:27;;;;;;;16.03;14.73;;;6.20;99.90;;;;;;5090837;28;20484;-75
2022/01/19 16:50:55;;;;;;;16.23;14.93;;;6.20;99.90;;;;;;5089025;28;20582;-75
2022/01/19 16:53:24;;;;;;;14.53;13.10;;;6.10;99.90;;;;;;5081796;28;20487;-75
2022/01/19 16:55:54;;;;;;;15.13;13.73;;;6.10;99.90;;;;;;5070664;28;20456;-74
2022/01/19 16:58:21;;;;;;;15.40;14.10;;;6.10;99.90;;;;;;5070704;28;20535;-74
2022/01/19 17:00:47;;;;;;;15.77;14.53;;;6.10;99.90;;;;;;5070515;28;20515;-74
2022/01/19 17:03:14;;;;;;;15.80;14.30;;;6.10;99.90;;;;;;5070161;28;20474;-75
2022/01/19 17:05:43;;;;;;;15.03;13.63;;;6.10;99.90;;;;;;5070076;28;20501;-75
2022/01/19 17:08:10;;;;;;;15.27;13.93;;;6.10;99.90;;;;;;5070052;28;20488;-76
2022/01/19 17:10:37;;;;;;;13.90;12.67;;;6.10;99.90;;;;;;5069572;28;20887;-76
2022/01/19 17:13:14;;;;;;;16.33;14.80;;;6.10;99.90;;;;;;5070108;28;20638;-75
2022/01/19 17:15:43;;;;;;;13.57;12.40;;;6.10;99.90;;;;;;5070089;28;21005;-76
2022/01/19 17:18:10;;;;;;;13.53;12.53;;;6.10;99.90;;;;;;5070098;28;20454;-76
2022/01/19 17:20:37;;;;;;;14.90;13.77;;;6.10;99.90;;;;;;5070032;28;20471;-75
2022/01/19 17:23:07;;;;;;;16.73;14.90;;;6.10;99.90;;;;;;5070112;28;21014;-75
2022/01/19 17:25:34;;;;;;;15.17;13.87;;;6.00;99.90;;;;;;5070173;28;20537;-75
2022/01/19 17:28:00;;;;;;;15.67;14.27;;;6.00;99.90;;;;;;5070002;28;20874;-76
2022/01/19 17:30:27;;;;;;;14.90;13.47;;;5.90;99.90;;;;;;5069614;28;20455;-75
2022/01/19 17:32:54;;;;;;;16.00;14.57;;;5.90;99.90;;;;;;5069581;28;20478;-76
2022/01/19 17:35:21;;;;;;;15.33;14.10;;;5.90;99.90;;;;;;5069921;28;20454;-76
2022/01/19 17:37:47;;;;;;;16.37;15.03;;;5.80;99.90;;;;;;5070028;28;20457;-76
2022/01/19 17:40:15;;;;;;;16.10;14.80;;;5.80;99.90;;;;;;5070062;28;20452;-76
2022/01/19 17:42:42;;;;;;;13.57;12.40;;;5.90;99.90;;;;;;5069613;28;20443;-76
2022/01/19 17:45:15;;;;;;;15.20;13.83;;;5.90;99.90;;;;;;5069878;28;20511;-76
2022/01/19 17:47:54;;;;;;;20.30;13.50;;;5.90;99.90;;;;;;5069636;28;20451;-76
2022/01/19 17:50:35;;;;;;;14.30;13.10;;;5.90;99.90;;;;;;5069762;28;20455;-76
2022/01/19 17:56:15;;;;;;;15.17;14.03;;;5.80;99.90;;;;;;5061863;28;21023;-75
2022/01/19 17:58:48;;;;;;;17.10;15.70;;;5.90;99.90;;;;;;5069846;28;20445;-75
